createdAt,value
2022-12-25T00:00:35.605Z,31.30
2022-12-25T00:03:02.549Z,31.65
2022-12-25T00:05:29.362Z,29.23
2022-12-25T00:07:56.119Z,27.73
2022-12-25T00:10:22.967Z,31.55
2022-12-25T00:12:49.926Z,25.55
2022-12-25T00:15:16.926Z,23.88
2022-12-25T00:17:43.874Z,23.13
2022-12-25T00:20:10.656Z,24.38
2022-12-25T00:22:37.652Z,23.73
2022-12-25T00:25:04.905Z,23.02
2022-12-25T00:27:34.001Z,22.35
2022-12-25T00:30:01.860Z,23.50
2022-12-25T00:32:28.514Z,22.38
2022-12-25T00:34:55.127Z,23.40
2022-12-25T00:37:21.887Z,24.85
2022-12-25T00:39:49.873Z,23.10
2022-12-25T00:42:19.504Z,23.50
2022-12-25T00:44:48.335Z,23.83
2022-12-25T00:47:16.717Z,23.05
2022-12-25T00:49:43.937Z,24.10
2022-12-25T00:52:10.756Z,21.60
2022-12-25T00:54:37.759Z,21.23
2022-12-25T00:57:04.670Z,22.67
2022-12-25T00:59:32.944Z,21.52
2022-12-25T01:02:18.711Z,22.33
2022-12-25T01:04:45.609Z,20.42
2022-12-25T01:07:12.538Z,21.25
2022-12-25T01:09:58.176Z,20.00
2022-12-25T01:12:24.953Z,20.90
2022-12-25T01:14:51.490Z,22.63
2022-12-25T01:17:18.467Z,19.00
2022-12-25T01:19:45.290Z,20.73
2022-12-25T01:22:11.955Z,18.15
2022-12-25T01:24:38.736Z,21.25
2022-12-25T01:27:05.367Z,21.35
2022-12-25T01:29:31.983Z,21.38
2022-12-25T01:31:58.769Z,19.00
2022-12-25T01:34:25.493Z,21.67
2022-12-25T01:36:52.234Z,19.10
2022-12-25T01:39:18.963Z,19.00
2022-12-25T01:41:45.675Z,21.67
2022-12-25T01:44:35.078Z,19.45
2022-12-25T01:47:05.642Z,19.75
2022-12-25T01:49:36.557Z,20.42
2022-12-25T01:52:05.735Z,19.45
2022-12-25T01:54:38.456Z,20.42
2022-12-25T01:57:09.044Z,21.88
2022-12-25T01:59:35.845Z,24.33
2022-12-25T02:02:03.734Z,22.85
2022-12-25T02:04:39.445Z,21.70
2022-12-25T02:07:14.176Z,19.40
2022-12-25T02:09:41.753Z,17.13
2022-12-25T02:12:12.308Z,18.17
2022-12-25T02:14:39.049Z,17.60
2022-12-25T02:17:08.652Z,17.25
2022-12-25T02:19:47.522Z,17.40
2022-12-25T02:22:14.056Z,17.58
2022-12-25T02:24:50.389Z,15.35
2022-12-25T02:27:45.660Z,15.63
2022-12-25T02:30:13.212Z,15.30
2022-12-25T02:33:20.173Z,16.30
2022-12-25T02:35:53.100Z,15.05
2022-12-25T02:38:31.400Z,15.05
2022-12-25T02:41:02.478Z,15.10
2022-12-25T02:43:55.750Z,16.40
2022-12-25T02:46:43.242Z,16.95
2022-12-25T02:49:34.349Z,18.98
2022-12-25T02:52:31.055Z,19.80
2022-12-25T02:55:28.635Z,19.48
2022-12-25T02:58:18.365Z,17.30
2022-12-25T03:01:07.056Z,17.20
2022-12-25T03:03:56.782Z,19.65
2022-12-25T03:06:45.808Z,17.42
2022-12-25T03:09:41.213Z,17.45
2022-12-25T03:12:37.680Z,17.60
2022-12-25T03:15:24.824Z,16.73
2022-12-25T03:17:51.758Z,16.55
2022-12-25T03:20:37.289Z,15.95
2022-12-25T03:23:27.308Z,16.27
2022-12-25T03:26:12.743Z,16.25
2022-12-25T03:28:39.370Z,15.85
2022-12-25T03:31:18.479Z,14.25
2022-12-25T03:34:32.693Z,15.13
2022-12-25T03:37:23.282Z,14.88
2022-12-25T03:40:49.553Z,15.63
2022-12-25T03:44:10.528Z,15.32
2022-12-25T03:47:04.294Z,13.73
2022-12-25T03:50:04.290Z,14.98
2022-12-25T03:52:50.372Z,15.18
2022-12-25T03:55:38.063Z,13.77
2022-12-25T03:58:23.456Z,14.43
2022-12-25T04:01:08.955Z,14.75
2022-12-25T04:03:54.215Z,16.40
2022-12-25T04:06:39.269Z,16.13
2022-12-25T04:09:24.596Z,17.15
2022-12-25T04:12:29.723Z,14.27
2022-12-25T04:18:00.476Z,15.13
2022-12-25T04:20:45.528Z,16.48
2022-12-25T04:23:30.749Z,14.80
2022-12-25T04:26:17.365Z,14.40
2022-12-25T04:29:02.628Z,14.60
2022-12-25T04:31:47.956Z,13.95
2022-12-25T04:34:33.680Z,15.52
2022-12-25T04:37:00.397Z,13.95
2022-12-25T04:39:27.014Z,13.52
2022-12-25T04:41:53.939Z,14.07
2022-12-25T04:44:20.510Z,14.13
2022-12-25T04:46:47.207Z,13.95
2022-12-25T04:49:14.122Z,13.85
2022-12-25T04:51:40.811Z,16.05
2022-12-25T04:54:07.460Z,13.55
2022-12-25T04:56:35.660Z,13.15
2022-12-25T04:59:06.172Z,15.32
2022-12-25T05:01:33.012Z,19.02
2022-12-25T05:03:59.868Z,11.73
2022-12-25T05:06:27.634Z,11.93
2022-12-25T05:08:54.255Z,11.90
2022-12-25T05:11:21.122Z,12.70
2022-12-25T05:13:47.927Z,12.35
2022-12-25T05:16:20.047Z,12.20
2022-12-25T05:18:49.652Z,12.10
2022-12-25T05:21:16.810Z,11.88
2022-12-25T05:23:48.648Z,11.52
2022-12-25T05:26:18.431Z,11.93
2022-12-25T05:28:45.256Z,11.45
2022-12-25T05:31:11.899Z,11.88
2022-12-25T05:33:38.718Z,11.60
2022-12-25T05:36:07.141Z,11.45
2022-12-25T05:38:33.878Z,10.95
2022-12-25T05:41:01.000Z,11.20
2022-12-25T05:43:28.814Z,15.30
2022-12-25T05:45:55.447Z,11.50
2022-12-25T05:48:22.365Z,12.82
2022-12-25T05:50:49.021Z,12.73
2022-12-25T05:53:16.140Z,11.35
2022-12-25T05:55:44.535Z,11.50
2022-12-25T05:58:12.581Z,11.88
2022-12-25T06:00:40.959Z,11.60
2022-12-25T06:03:07.722Z,12.57
2022-12-25T06:05:34.392Z,12.68
2022-12-25T06:08:01.021Z,14.38
2022-12-25T06:10:27.989Z,11.80
2022-12-25T06:12:54.725Z,11.05
2022-12-25T06:15:21.302Z,12.38
2022-12-25T06:17:48.243Z,11.63
2022-12-25T06:20:14.855Z,12.40
2022-12-25T06:22:41.554Z,12.65
2022-12-25T06:25:08.901Z,13.48
2022-12-25T06:27:35.721Z,13.35
2022-12-25T06:30:02.785Z,13.50
2022-12-25T06:32:29.638Z,14.23
2022-12-25T06:34:56.300Z,12.00
2022-12-25T06:37:22.878Z,13.98
2022-12-25T06:39:49.650Z,13.95
2022-12-25T06:42:16.320Z,13.85
2022-12-25T06:44:42.935Z,12.48
2022-12-25T06:47:09.674Z,14.05
2022-12-25T06:49:36.477Z,13.45
2022-12-25T06:52:03.241Z,14.00
2022-12-25T06:54:30.422Z,12.68
2022-12-25T06:56:57.096Z,12.20
2022-12-25T06:59:23.863Z,12.20
2022-12-25T07:01:56.114Z,12.65
2022-12-25T07:04:28.529Z,13.07
2022-12-25T07:06:55.261Z,13.27
2022-12-25T07:09:21.924Z,12.98
2022-12-25T07:11:48.522Z,15.63
2022-12-25T07:14:24.305Z,15.32
2022-12-25T07:16:51.684Z,15.48
2022-12-25T07:19:19.382Z,15.43
2022-12-25T07:21:46.348Z,14.30
2022-12-25T07:24:18.757Z,15.90
2022-12-25T07:26:45.554Z,17.08
2022-12-25T07:29:12.292Z,16.40
2022-12-25T07:31:39.124Z,16.80
2022-12-25T07:34:05.980Z,16.45
2022-12-25T07:36:32.615Z,16.17
2022-12-25T07:38:59.462Z,15.40
2022-12-25T07:41:26.270Z,16.52
2022-12-25T07:43:53.901Z,15.00
2022-12-25T07:46:22.317Z,14.13
2022-12-25T07:48:49.840Z,14.30
2022-12-25T07:51:16.520Z,12.68
2022-12-25T07:53:43.553Z,12.50
2022-12-25T07:56:12.300Z,13.90
2022-12-25T07:58:38.990Z,13.25
2022-12-25T08:01:12.035Z,11.73
2022-12-25T08:03:39.030Z,9.65
2022-12-25T08:06:08.218Z,9.88
2022-12-25T08:08:36.262Z,10.60
2022-12-25T08:11:03.723Z,9.65
2022-12-25T08:13:32.069Z,9.38
2022-12-25T08:16:04.150Z,9.82
2022-12-25T08:18:32.260Z,9.45
2022-12-25T08:21:04.349Z,9.70
2022-12-25T08:23:33.418Z,9.48
2022-12-25T08:26:05.158Z,9.98
2022-12-25T08:28:34.437Z,9.98
2022-12-25T08:31:07.470Z,10.95
2022-12-25T08:33:34.437Z,10.15
2022-12-25T08:36:07.166Z,10.73
2022-12-25T08:38:33.955Z,11.68
2022-12-25T08:41:00.886Z,11.45
2022-12-25T08:43:27.799Z,11.18
2022-12-25T08:45:54.461Z,12.10
2022-12-25T08:48:21.376Z,11.90
2022-12-25T08:50:50.095Z,11.80
2022-12-25T08:53:17.391Z,10.82
2022-12-25T08:55:44.395Z,11.35
2022-12-25T08:58:11.514Z,12.27
2022-12-25T09:00:38.311Z,10.23
2022-12-25T09:03:05.067Z,10.15
2022-12-25T09:05:39.670Z,8.35
2022-12-25T09:08:06.562Z,8.00
2022-12-25T09:10:36.825Z,7.50
2022-12-25T09:13:04.719Z,8.35
2022-12-25T09:15:31.883Z,8.60
2022-12-25T09:17:58.722Z,6.70
2022-12-25T09:20:25.585Z,7.75
2022-12-25T09:22:52.204Z,7.68
2022-12-25T09:25:18.961Z,6.95
2022-12-25T09:27:45.800Z,6.18
2022-12-25T09:30:12.654Z,6.88
2022-12-25T09:32:42.152Z,7.07
2022-12-25T09:35:09.307Z,7.38
2022-12-25T09:37:36.254Z,7.28
2022-12-25T09:40:03.748Z,7.07
2022-12-25T09:42:32.807Z,8.20
2022-12-25T09:45:03.103Z,7.95
2022-12-25T09:47:34.175Z,7.20
2022-12-25T09:50:07.969Z,7.38
2022-12-25T09:52:52.997Z,6.78
2022-12-25T09:55:25.494Z,7.38
2022-12-25T09:57:56.089Z,7.03
2022-12-25T10:00:25.831Z,6.15
2022-12-25T10:03:34.393Z,6.95
2022-12-25T10:06:13.222Z,7.10
2022-12-25T10:09:05.505Z,7.25
2022-12-25T10:11:49.835Z,6.43
2022-12-25T10:14:22.703Z,6.60
2022-12-25T10:16:52.150Z,6.40
2022-12-25T10:19:33.634Z,6.60
2022-12-25T10:22:11.305Z,5.70
2022-12-25T10:24:47.483Z,6.55
2022-12-25T10:27:19.666Z,6.30
2022-12-25T10:29:52.609Z,6.85
2022-12-25T10:32:19.257Z,5.43
2022-12-25T10:34:45.965Z,5.75
2022-12-25T10:37:13.057Z,6.35
2022-12-25T10:39:45.996Z,6.63
2022-12-25T10:42:27.045Z,5.57
2022-12-25T10:44:56.780Z,5.97
2022-12-25T10:47:26.027Z,5.85
2022-12-25T10:49:54.258Z,5.32
2022-12-25T10:52:24.057Z,5.90
2022-12-25T10:54:51.270Z,5.47
2022-12-25T10:57:21.925Z,5.88
2022-12-25T10:59:57.402Z,5.72
2022-12-25T11:02:24.448Z,4.75
2022-12-25T11:04:52.729Z,5.47
2022-12-25T11:07:19.339Z,5.78
2022-12-25T11:09:57.786Z,5.80
2022-12-25T11:12:42.225Z,6.00
2022-12-25T11:15:40.097Z,5.78
2022-12-25T11:18:23.285Z,5.40
2022-12-25T11:20:58.523Z,5.30
2022-12-25T11:23:27.638Z,5.45
2022-12-25T11:26:15.276Z,6.13
2022-12-25T11:28:44.052Z,5.00
2022-12-25T11:31:20.265Z,5.03
2022-12-25T11:33:57.369Z,5.15
2022-12-25T11:36:27.067Z,5.18
2022-12-25T11:38:53.752Z,5.10
2022-12-25T11:41:25.857Z,4.47
2022-12-25T11:43:59.548Z,4.70
2022-12-25T11:46:38.623Z,5.05
2022-12-25T11:49:08.761Z,5.60
2022-12-25T11:51:41.314Z,5.45
2022-12-25T11:54:17.222Z,4.80
2022-12-25T11:56:43.952Z,5.28
2022-12-25T11:59:21.468Z,4.85
2022-12-25T12:02:03.867Z,5.10
2022-12-25T12:04:43.095Z,5.13
2022-12-25T12:07:30.889Z,4.70
2022-12-25T12:10:15.380Z,4.78
2022-12-25T12:18:29.921Z,4.60
2022-12-25T12:21:11.240Z,4.55
2022-12-25T12:23:56.401Z,4.80
2022-12-25T12:26:31.674Z,4.50
2022-12-25T12:29:01.327Z,4.00
2022-12-25T12:31:42.543Z,4.50
2022-12-25T12:34:23.665Z,4.63
2022-12-25T12:36:54.063Z,7.05
2022-12-25T12:39:25.968Z,6.72
2022-12-25T12:41:53.686Z,5.50
2022-12-25T12:44:27.458Z,4.40
2022-12-25T12:46:56.569Z,4.75
2022-12-25T12:49:34.780Z,4.35
2022-12-25T12:52:12.201Z,4.97
2022-12-25T12:55:09.023Z,4.50
2022-12-25T12:57:39.943Z,4.70
2022-12-25T13:00:19.143Z,4.95
2022-12-25T13:02:58.085Z,4.78
2022-12-25T13:05:54.586Z,4.40
2022-12-25T13:09:07.545Z,4.30
2022-12-25T13:11:43.984Z,4.30
2022-12-25T13:14:17.218Z,4.15
2022-12-25T13:16:47.140Z,4.18
2022-12-25T13:19:18.151Z,4.13
2022-12-25T13:22:00.581Z,3.83
2022-12-25T13:24:32.642Z,4.20
2022-12-25T13:27:00.516Z,3.72
2022-12-25T13:29:37.105Z,4.28
2022-12-25T13:32:07.228Z,4.50
2022-12-25T13:34:34.411Z,4.00
2022-12-25T13:37:13.754Z,4.35
2022-12-25T13:39:56.842Z,4.22
2022-12-25T13:42:31.655Z,4.18
2022-12-25T13:45:18.604Z,4.32
2022-12-25T13:47:51.434Z,4.57
2022-12-25T13:50:31.856Z,5.03
2022-12-25T13:53:11.608Z,4.95
2022-12-25T13:55:39.688Z,4.60
2022-12-25T13:58:07.659Z,4.80
2022-12-25T14:00:53.405Z,5.57
2022-12-25T14:03:23.788Z,4.45
2022-12-25T14:05:59.354Z,5.10
2022-12-25T14:08:29.130Z,4.97
2022-12-25T14:10:56.344Z,4.80
2022-12-25T14:13:27.751Z,5.28
2022-12-25T14:15:56.711Z,4.15
2022-12-25T14:18:24.855Z,4.72
2022-12-25T14:21:15.658Z,4.80
2022-12-25T14:23:46.745Z,4.68
2022-12-25T14:26:16.634Z,4.35
2022-12-25T14:28:48.648Z,4.53
2022-12-25T14:31:15.620Z,7.55
2022-12-25T14:33:42.996Z,6.97
2022-12-25T14:36:13.260Z,4.22
2022-12-25T14:38:42.579Z,4.22
2022-12-25T14:41:33.800Z,4.50
2022-12-25T14:44:03.976Z,4.35
2022-12-25T14:46:32.951Z,4.65
2022-12-25T14:49:23.080Z,4.65
2022-12-25T14:51:50.429Z,5.30
2022-12-25T14:54:22.629Z,4.95
2022-12-25T14:56:51.890Z,5.10
2022-12-25T14:59:25.439Z,6.60
2022-12-25T15:01:56.279Z,5.45
2022-12-25T15:04:23.968Z,5.50
2022-12-25T15:07:07.555Z,6.15
2022-12-25T15:09:35.961Z,6.78
2022-12-25T15:12:03.140Z,6.53
2022-12-25T15:14:31.741Z,6.22
2022-12-25T15:17:01.359Z,6.05
2022-12-25T15:19:38.406Z,5.72
2022-12-25T15:22:06.172Z,5.50
2022-12-25T15:24:33.361Z,6.18
2022-12-25T15:27:00.843Z,6.78
2022-12-25T15:30:00.237Z,7.05
2022-12-25T15:32:24.529Z,6.50
2022-12-25T15:34:51.464Z,7.50
2022-12-25T15:37:19.008Z,7.90
2022-12-25T15:39:46.461Z,8.93
2022-12-25T15:42:18.423Z,9.75
2022-12-25T15:44:45.467Z,9.05
2022-12-25T15:47:14.439Z,9.02
2022-12-25T15:49:41.388Z,9.02
2022-12-25T15:52:11.073Z,9.05
2022-12-25T15:54:38.071Z,8.88
2022-12-25T15:57:07.153Z,8.38
2022-12-25T15:59:34.537Z,20.30
2022-12-25T16:02:03.209Z,21.30
2022-12-25T16:04:31.421Z,10.63
2022-12-25T16:06:58.705Z,11.57
2022-12-25T16:09:26.698Z,10.70
2022-12-25T16:11:53.331Z,11.98
2022-12-25T16:14:20.183Z,9.02
2022-12-25T16:16:47.146Z,9.60
2022-12-25T16:19:13.822Z,9.02
2022-12-25T16:21:44.722Z,10.63
2022-12-25T16:24:12.377Z,10.45
2022-12-25T16:26:39.325Z,11.45
2022-12-25T16:29:07.478Z,11.88
2022-12-25T16:31:35.124Z,12.77
2022-12-25T16:34:01.890Z,14.05
2022-12-25T16:36:28.572Z,17.23
2022-12-25T16:38:56.093Z,11.63
2022-12-25T16:41:22.779Z,10.55
2022-12-25T16:43:49.452Z,11.02
2022-12-25T16:46:19.070Z,12.07
2022-12-25T16:48:46.039Z,13.05
2022-12-25T16:51:15.697Z,13.80
2022-12-25T16:53:43.120Z,26.13
2022-12-25T16:56:12.265Z,34.85
2022-12-25T16:58:39.296Z,22.35
2022-12-25T17:01:11.126Z,14.20
2022-12-25T17:03:39.014Z,16.45
2022-12-25T17:06:16.875Z,17.65
2022-12-25T17:08:43.789Z,16.30
2022-12-25T17:11:11.240Z,17.90
2022-12-25T17:13:38.061Z,14.40
2022-12-25T17:16:22.986Z,10.48
2022-12-25T17:18:57.177Z,15.00
2022-12-25T17:21:25.073Z,13.70
2022-12-25T17:23:54.305Z,13.75
2022-12-25T17:26:25.180Z,15.40
2022-12-25T17:28:52.011Z,13.80
2022-12-25T17:31:18.949Z,13.35
2022-12-25T17:33:46.239Z,13.90
2022-12-25T17:36:16.264Z,16.88
2022-12-25T17:38:43.361Z,14.43
2022-12-25T17:41:12.924Z,16.27
2022-12-25T17:43:41.410Z,16.45
2022-12-25T17:46:11.934Z,14.43
2022-12-25T17:48:38.849Z,14.68
2022-12-25T17:51:08.702Z,18.70
2022-12-25T17:53:37.092Z,23.58
2022-12-25T17:56:04.437Z,17.05
2022-12-25T17:58:31.780Z,14.80
2022-12-25T18:01:04.358Z,15.65
2022-12-25T18:03:31.260Z,15.25
2022-12-25T18:06:00.619Z,13.93
2022-12-25T18:08:32.431Z,13.13
2022-12-25T18:11:05.334Z,12.27
2022-12-25T18:13:32.612Z,12.30
2022-12-25T18:16:04.328Z,16.42
2022-12-25T18:18:31.337Z,15.75
2022-12-25T18:20:58.024Z,13.75
2022-12-25T18:23:25.841Z,13.23
2022-12-25T18:25:53.082Z,12.48
2022-12-25T18:28:19.835Z,15.65
2022-12-25T18:30:47.464Z,17.20
2022-12-25T18:33:14.541Z,16.55
2022-12-25T18:35:42.923Z,21.80
2022-12-25T18:38:10.914Z,23.60
2022-12-25T18:40:42.338Z,24.23
2022-12-25T18:43:09.424Z,21.83
2022-12-25T18:45:36.482Z,21.38
2022-12-25T18:48:05.637Z,16.90
2022-12-25T18:50:37.684Z,15.75
2022-12-25T18:53:05.105Z,14.90
2022-12-25T18:55:32.322Z,14.48
2022-12-25T18:57:59.034Z,14.77
2022-12-25T19:00:26.143Z,12.73
2022-12-25T19:02:58.608Z,14.10
2022-12-25T19:05:26.074Z,14.85
2022-12-25T19:07:53.409Z,14.30
2022-12-25T19:10:20.151Z,12.77
2022-12-25T19:12:46.786Z,14.70
2022-12-25T19:15:13.800Z,62.15
2022-12-25T19:17:40.429Z,55.35
2022-12-25T19:20:07.841Z,51.22
2022-12-25T19:22:34.694Z,40.13
2022-12-25T19:25:01.436Z,23.65
2022-12-25T19:27:27.989Z,27.38
2022-12-25T19:29:54.685Z,18.38
2022-12-25T19:32:21.322Z,16.08
2022-12-25T19:34:48.003Z,15.98
2022-12-25T19:37:15.181Z,16.10
2022-12-25T19:39:46.874Z,17.50
2022-12-25T19:42:16.099Z,16.35
2022-12-25T19:44:44.249Z,17.08
2022-12-25T19:47:11.437Z,16.55
2022-12-25T19:49:39.876Z,12.20
2022-12-25T19:52:07.538Z,13.55
2022-12-25T19:54:34.162Z,11.85
2022-12-25T19:57:00.866Z,11.38
2022-12-25T19:59:27.762Z,12.13
2022-12-25T20:01:54.796Z,18.75
2022-12-25T20:04:21.611Z,16.17
2022-12-25T20:06:48.310Z,17.85
2022-12-25T20:09:21.013Z,19.08
2022-12-25T20:11:48.349Z,18.30
2022-12-25T20:14:16.710Z,18.83
2022-12-25T20:16:44.225Z,20.88
2022-12-25T20:19:14.488Z,20.85
2022-12-25T20:21:41.764Z,19.48
2022-12-25T20:24:11.226Z,17.85
2022-12-25T20:26:39.305Z,17.27
2022-12-25T20:29:06.347Z,16.98
2022-12-25T20:31:34.951Z,16.70
2022-12-25T20:34:06.684Z,17.50
2022-12-25T20:36:37.176Z,17.05
2022-12-25T20:39:06.517Z,15.48
2022-12-25T20:41:33.132Z,14.43
2022-12-25T20:44:02.047Z,12.88
2022-12-25T20:46:28.897Z,12.70
2022-12-25T20:48:55.532Z,11.75
2022-12-25T20:51:24.081Z,10.75
2022-12-25T20:53:51.539Z,10.52
2022-12-25T20:56:21.050Z,9.82
2022-12-25T20:58:47.853Z,10.38
2022-12-25T21:01:17.950Z,10.07
2022-12-25T21:03:45.350Z,9.82
2022-12-25T21:06:12.284Z,9.88
2022-12-25T21:08:39.515Z,10.43
2022-12-25T21:11:07.530Z,8.95
2022-12-25T21:13:36.728Z,8.90
2022-12-25T21:16:22.711Z,9.20
2022-12-25T21:18:51.195Z,9.50
2022-12-25T21:21:18.216Z,9.68
2022-12-25T21:23:45.939Z,9.48
2022-12-25T21:26:21.454Z,11.27
2022-12-25T21:28:50.640Z,11.65
2022-12-25T21:31:18.008Z,12.65
2022-12-25T21:33:54.956Z,12.23
2022-12-25T21:36:27.235Z,13.13
2022-12-25T21:38:56.895Z,12.23
2022-12-25T21:41:24.458Z,11.77
2022-12-25T21:43:51.210Z,15.93
2022-12-25T21:46:18.426Z,15.07
2022-12-25T21:48:45.749Z,16.80
2022-12-25T21:51:34.729Z,17.45
2022-12-25T21:54:02.045Z,14.43
2022-12-25T21:56:30.950Z,15.52
2022-12-25T21:59:05.708Z,16.98
2022-12-25T22:01:32.804Z,16.83
2022-12-25T22:04:04.627Z,15.93
2022-12-25T22:06:50.624Z,15.52
2022-12-25T22:09:17.330Z,15.50
2022-12-25T22:12:02.850Z,16.48
2022-12-25T22:14:51.250Z,16.90
2022-12-25T22:17:46.594Z,15.77
2022-12-25T22:20:20.606Z,14.85
2022-12-25T22:22:47.974Z,21.83
2022-12-25T22:25:15.662Z,20.73
2022-12-25T22:27:44.285Z,24.48
2022-12-25T22:30:14.667Z,25.00
2022-12-25T22:32:41.960Z,31.95
2022-12-25T22:35:09.531Z,31.42
2022-12-25T22:37:36.245Z,30.23
2022-12-25T22:40:04.296Z,19.83
2022-12-25T22:42:31.067Z,31.95
2022-12-25T22:44:57.861Z,30.73
2022-12-25T22:47:24.597Z,41.10
2022-12-25T22:49:51.306Z,47.00
2022-12-25T22:52:18.014Z,41.35
2022-12-25T22:54:44.732Z,25.92
2022-12-25T22:57:11.358Z,26.30
2022-12-25T22:59:38.113Z,33.05
2022-12-25T23:02:05.962Z,31.50
2022-12-25T23:04:32.829Z,36.65
2022-12-25T23:06:59.617Z,38.33
2022-12-25T23:09:29.672Z,29.50
2022-12-25T23:11:58.223Z,26.45
2022-12-25T23:14:41.988Z,32.60
2022-12-25T23:17:31.793Z,31.13
2022-12-25T23:20:18.415Z,30.55
2022-12-25T23:23:05.197Z,21.70
2022-12-25T23:25:50.768Z,23.00
2022-12-25T23:28:37.699Z,20.40
2022-12-25T23:31:04.666Z,22.60
2022-12-25T23:33:31.557Z,18.92
2022-12-25T23:35:58.312Z,19.58
2022-12-25T23:38:24.992Z,21.67
2022-12-25T23:40:52.395Z,19.23
2022-12-25T23:43:18.986Z,18.38
2022-12-25T23:45:45.756Z,18.48
2022-12-25T23:48:12.367Z,16.70
2022-12-25T23:50:38.997Z,16.63
2022-12-25T23:53:05.656Z,29.92
2022-12-25T23:55:33.986Z,34.60
2022-12-25T23:58:00.589Z,24.67
